createdAt,value
2019-03-30T00:00:01.258Z,35.45
2019-03-30T00:02:35.766Z,32.83
2019-03-30T00:05:08.718Z,33.25
2019-03-30T00:07:40.282Z,33.90
2019-03-30T00:10:11.400Z,35.75
2019-03-30T00:12:42.400Z,32.90
2019-03-30T00:15:13.239Z,30.45
2019-03-30T00:17:44.192Z,30.15
2019-03-30T00:20:15.248Z,33.75
2019-03-30T00:22:46.232Z,31.15
2019-03-30T00:25:18.860Z,33.13
2019-03-30T00:27:50.974Z,38.05
2019-03-30T00:30:21.838Z,35.03
2019-03-30T00:32:52.719Z,37.55
2019-03-30T00:35:23.658Z,39.23
2019-03-30T00:37:54.695Z,35.28
2019-03-30T00:40:25.699Z,34.95
2019-03-30T00:42:56.635Z,33.85
2019-03-30T00:45:27.487Z,33.60
2019-03-30T00:47:58.994Z,28.47
2019-03-30T00:50:29.979Z,30.02
2019-03-30T00:53:01.672Z,28.12
2019-03-30T00:55:32.636Z,23.10
2019-03-30T00:58:03.609Z,26.27
2019-03-30T01:00:35.154Z,23.45
2019-03-30T01:03:06.110Z,21.90
2019-03-30T01:05:38.884Z,22.80
2019-03-30T01:08:09.861Z,20.95
2019-03-30T01:10:40.752Z,23.73
2019-03-30T01:13:11.607Z,23.15
2019-03-30T01:15:42.564Z,23.38
2019-03-30T01:18:14.023Z,25.55
2019-03-30T01:20:44.979Z,25.95
2019-03-30T01:23:16.055Z,27.42
2019-03-30T01:25:47.220Z,24.65
2019-03-30T01:28:18.231Z,30.20
2019-03-30T01:30:49.106Z,27.02
2019-03-30T01:33:20.078Z,31.55
2019-03-30T01:35:51.027Z,31.82
2019-03-30T01:38:21.889Z,33.00
2019-03-30T01:40:53.137Z,29.35
2019-03-30T01:43:24.302Z,32.55
2019-03-30T01:45:55.269Z,29.57
2019-03-30T01:48:26.282Z,30.20
2019-03-30T01:50:57.285Z,30.80
2019-03-30T01:53:28.235Z,28.07
2019-03-30T01:55:59.875Z,32.23
2019-03-30T01:58:30.778Z,33.05
2019-03-30T02:01:02.741Z,30.08
2019-03-30T02:03:33.711Z,32.73
2019-03-30T02:06:05.920Z,30.97
2019-03-30T02:08:36.919Z,34.75
2019-03-30T02:11:07.796Z,33.48
2019-03-30T02:13:38.755Z,29.40
2019-03-30T02:16:09.864Z,31.50
2019-03-30T02:18:40.859Z,32.17
2019-03-30T02:21:11.649Z,30.02
2019-03-30T02:23:42.907Z,30.05
2019-03-30T02:26:13.843Z,27.80
2019-03-30T02:28:44.814Z,31.80
2019-03-30T02:31:27.297Z,31.68
2019-03-30T02:33:58.468Z,31.20
2019-03-30T02:36:30.535Z,34.38
2019-03-30T02:39:01.476Z,31.33
2019-03-30T02:41:34.173Z,33.05
2019-03-30T02:44:05.171Z,34.50
2019-03-30T02:46:36.325Z,30.08
2019-03-30T02:49:07.298Z,30.10
2019-03-30T02:51:38.144Z,32.48
2019-03-30T02:54:09.098Z,32.40
2019-03-30T02:56:39.959Z,30.15
2019-03-30T02:59:10.919Z,36.05
2019-03-30T03:01:41.944Z,35.52
2019-03-30T03:04:12.949Z,35.35
2019-03-30T03:06:45.507Z,36.98
2019-03-30T03:09:16.462Z,34.65
2019-03-30T03:11:47.476Z,39.70
2019-03-30T03:14:18.401Z,39.40
2019-03-30T03:16:49.763Z,34.00
2019-03-30T03:19:20.723Z,34.40
2019-03-30T03:21:51.695Z,33.88
2019-03-30T03:24:22.665Z,39.03
2019-03-30T03:26:53.604Z,37.03
2019-03-30T03:29:24.565Z,37.70
2019-03-30T03:31:56.221Z,38.67
2019-03-30T03:34:27.102Z,34.13
2019-03-30T03:36:58.048Z,37.78
2019-03-30T03:39:28.997Z,39.63
2019-03-30T03:42:01.795Z,35.78
2019-03-30T03:44:32.770Z,37.85
2019-03-30T03:47:03.707Z,39.80
2019-03-30T03:49:34.587Z,38.05
2019-03-30T03:52:07.000Z,37.10
2019-03-30T03:54:39.905Z,40.80
2019-03-30T03:57:13.137Z,38.10
2019-03-30T03:59:44.480Z,36.83
2019-03-30T04:02:16.941Z,41.60
2019-03-30T04:04:49.810Z,41.53
2019-03-30T04:07:23.369Z,37.20
2019-03-30T04:09:57.661Z,36.90
2019-03-30T04:12:29.475Z,36.63
2019-03-30T04:15:03.143Z,33.55
2019-03-30T04:17:34.256Z,38.38
2019-03-30T04:20:06.282Z,35.43
2019-03-30T04:22:37.157Z,39.48
2019-03-30T04:25:09.917Z,39.05
2019-03-30T04:27:40.801Z,40.55
2019-03-30T04:30:11.842Z,37.93
2019-03-30T04:32:43.763Z,38.42
2019-03-30T04:35:14.620Z,43.42
2019-03-30T04:37:45.556Z,41.77
2019-03-30T04:40:19.563Z,39.15
2019-03-30T04:42:50.843Z,41.85
2019-03-30T04:45:21.800Z,38.05
2019-03-30T04:47:54.927Z,40.70
2019-03-30T04:50:28.431Z,42.88
2019-03-30T04:53:04.731Z,44.05
2019-03-30T04:55:39.954Z,41.73
2019-03-30T04:58:14.184Z,39.70
2019-03-30T05:00:49.202Z,44.33
2019-03-30T05:03:22.991Z,43.70
2019-03-30T05:05:56.678Z,47.45
2019-03-30T05:08:30.433Z,52.80
2019-03-30T05:11:05.255Z,51.48
2019-03-30T05:13:41.427Z,50.90
2019-03-30T05:16:14.607Z,47.45
2019-03-30T05:18:46.416Z,48.95
2019-03-30T05:21:22.180Z,53.55
2019-03-30T05:23:54.280Z,54.45
2019-03-30T05:26:27.583Z,68.02
2019-03-30T05:29:09.618Z,75.12
2019-03-30T05:31:42.886Z,66.60
2019-03-30T05:34:17.306Z,60.67
2019-03-30T05:36:50.462Z,62.40
2019-03-30T05:39:24.542Z,66.33
2019-03-30T05:41:56.735Z,74.82
2019-03-30T05:44:31.859Z,73.52
2019-03-30T05:47:04.722Z,79.40
2019-03-30T05:49:37.110Z,70.62
2019-03-30T05:52:09.912Z,66.67
2019-03-30T05:54:45.097Z,71.92
2019-03-30T05:57:18.859Z,55.40
2019-03-30T05:59:55.832Z,65.40
2019-03-30T06:02:27.620Z,55.88
2019-03-30T06:05:03.753Z,50.55
2019-03-30T06:07:35.595Z,42.75
2019-03-30T06:10:08.396Z,45.23
2019-03-30T06:12:42.107Z,47.93
2019-03-30T06:15:17.101Z,48.30
2019-03-30T06:17:51.163Z,41.80
2019-03-30T06:20:25.113Z,48.95
2019-03-30T06:22:57.811Z,36.05
2019-03-30T06:25:30.219Z,37.93
2019-03-30T06:28:14.046Z,49.77
2019-03-30T06:30:49.720Z,41.65
2019-03-30T06:33:22.195Z,53.20
2019-03-30T06:35:55.231Z,50.65
2019-03-30T06:38:28.363Z,50.60
2019-03-30T06:41:04.691Z,57.90
2019-03-30T06:43:37.497Z,54.50
2019-03-30T06:46:11.811Z,58.58
2019-03-30T06:48:43.621Z,55.23
2019-03-30T06:51:17.282Z,53.48
2019-03-30T06:53:51.084Z,51.95
2019-03-30T06:56:22.808Z,55.60
2019-03-30T06:58:56.147Z,53.33
2019-03-30T07:01:30.339Z,45.70
2019-03-30T07:04:05.740Z,48.33
2019-03-30T07:06:40.202Z,48.00
2019-03-30T07:09:15.909Z,48.23
2019-03-30T07:11:50.015Z,46.42
2019-03-30T07:14:28.634Z,46.15
2019-03-30T07:17:03.930Z,53.60
2019-03-30T07:19:40.129Z,50.95
2019-03-30T07:22:11.059Z,47.48
2019-03-30T07:24:44.095Z,48.25
2019-03-30T07:27:20.395Z,47.90
2019-03-30T07:29:55.488Z,46.15
2019-03-30T07:32:26.691Z,52.53
2019-03-30T07:34:57.618Z,46.55
2019-03-30T07:37:29.068Z,49.33
2019-03-30T07:40:00.052Z,45.70
2019-03-30T07:42:34.532Z,43.55
2019-03-30T07:45:08.021Z,46.15
2019-03-30T07:47:40.983Z,48.13
2019-03-30T07:50:14.699Z,44.00
2019-03-30T07:52:48.092Z,47.45
2019-03-30T07:55:25.312Z,42.85
2019-03-30T07:57:57.523Z,43.40
2019-03-30T08:00:31.079Z,51.68
2019-03-30T08:03:03.158Z,43.15
2019-03-30T08:05:36.672Z,44.27
2019-03-30T08:08:08.366Z,42.48
2019-03-30T08:10:43.268Z,42.83
2019-03-30T08:13:16.656Z,42.03
2019-03-30T08:15:48.015Z,41.02
2019-03-30T08:18:19.739Z,43.30
2019-03-30T08:20:54.845Z,41.02
2019-03-30T08:23:39.520Z,46.60
2019-03-30T08:25:59.769Z,41.10
2019-03-30T08:28:32.163Z,43.50
2019-03-30T08:31:04.248Z,42.33
2019-03-30T08:33:37.294Z,46.70
2019-03-30T08:36:11.805Z,42.95
2019-03-30T08:38:45.534Z,43.65
2019-03-30T08:41:21.356Z,43.80
2019-03-30T08:43:52.248Z,41.25
2019-03-30T08:46:23.233Z,47.62
2019-03-30T08:48:54.474Z,48.10
2019-03-30T08:51:25.442Z,50.67
2019-03-30T08:53:56.279Z,45.67
2019-03-30T08:56:28.134Z,46.50
2019-03-30T08:58:59.112Z,54.67
2019-03-30T09:01:30.107Z,51.25
2019-03-30T09:04:01.036Z,49.75
2019-03-30T09:06:32.891Z,55.78
2019-03-30T09:09:06.124Z,52.25
2019-03-30T09:11:37.421Z,53.38
2019-03-30T09:14:08.659Z,55.25
2019-03-30T09:16:40.032Z,52.53
2019-03-30T09:19:11.035Z,59.53
2019-03-30T09:21:43.723Z,51.85
2019-03-30T09:24:14.651Z,58.02
2019-03-30T09:26:45.599Z,54.98
2019-03-30T09:29:16.523Z,54.05
2019-03-30T09:31:47.516Z,58.58
2019-03-30T09:34:18.451Z,58.78
2019-03-30T09:36:49.579Z,55.80
2019-03-30T09:39:20.699Z,55.05
2019-03-30T09:41:52.082Z,64.80
2019-03-30T09:44:23.916Z,60.80
2019-03-30T09:46:54.893Z,59.35
2019-03-30T09:49:26.563Z,57.03
2019-03-30T09:51:57.415Z,59.13
2019-03-30T09:54:28.358Z,61.15
2019-03-30T09:56:59.343Z,60.25
2019-03-30T09:59:30.284Z,60.38
2019-03-30T10:02:01.416Z,65.85
2019-03-30T10:04:32.367Z,74.25
2019-03-30T10:07:03.935Z,66.30
2019-03-30T10:09:34.809Z,70.83
2019-03-30T10:12:05.846Z,68.80
2019-03-30T10:14:36.908Z,73.52
2019-03-30T10:17:07.913Z,70.42
2019-03-30T10:19:38.755Z,71.95
2019-03-30T10:22:09.615Z,71.42
2019-03-30T10:24:41.346Z,70.12
2019-03-30T10:27:12.257Z,73.57
2019-03-30T10:29:43.246Z,69.80
2019-03-30T10:32:14.163Z,71.90
2019-03-30T10:34:45.111Z,70.22
2019-03-30T10:37:16.478Z,73.60
2019-03-30T10:39:47.421Z,79.85
2019-03-30T10:42:18.415Z,73.30
2019-03-30T10:44:50.421Z,82.15
2019-03-30T10:47:22.156Z,78.15
2019-03-30T10:49:53.167Z,77.32
2019-03-30T10:52:24.104Z,70.00
2019-03-30T10:54:55.319Z,71.70
2019-03-30T10:57:26.291Z,97.08
2019-03-30T10:59:57.286Z,74.87
2019-03-30T11:02:28.282Z,88.80
2019-03-30T11:04:59.336Z,79.05
2019-03-30T11:07:30.327Z,76.97
2019-03-30T11:10:03.081Z,70.62
2019-03-30T11:12:34.083Z,78.83
2019-03-30T11:15:05.377Z,72.10
2019-03-30T11:17:36.371Z,72.40
2019-03-30T11:20:07.763Z,72.50
2019-03-30T11:22:39.153Z,72.90
2019-03-30T11:25:10.370Z,78.20
2019-03-30T11:27:41.459Z,72.10
2019-03-30T11:30:12.374Z,79.65
2019-03-30T11:32:43.254Z,77.53
2019-03-30T11:35:14.216Z,80.45
2019-03-30T11:37:45.191Z,86.85
2019-03-30T11:40:16.222Z,74.27
2019-03-30T11:42:47.184Z,75.52
2019-03-30T11:45:18.558Z,77.05
2019-03-30T11:47:49.522Z,78.55
2019-03-30T11:50:20.445Z,79.10
2019-03-30T11:52:51.428Z,71.55
2019-03-30T11:55:22.647Z,74.17
2019-03-30T11:57:53.674Z,74.92
2019-03-30T12:00:24.750Z,74.47
2019-03-30T12:02:56.499Z,76.10
2019-03-30T12:05:27.515Z,77.10
2019-03-30T12:07:59.099Z,80.15
2019-03-30T12:10:30.169Z,72.75
2019-03-30T12:13:01.033Z,82.40
2019-03-30T12:15:32.390Z,80.07
2019-03-30T12:18:03.423Z,81.32
2019-03-30T12:20:34.416Z,65.87
2019-03-30T12:23:06.000Z,68.87
2019-03-30T12:25:37.950Z,66.02
2019-03-30T12:28:09.947Z,61.23
2019-03-30T12:30:40.887Z,63.38
2019-03-30T12:33:11.875Z,65.70
2019-03-30T12:35:42.803Z,60.48
2019-03-30T12:38:13.783Z,61.83
2019-03-30T12:40:44.839Z,57.93
2019-03-30T12:43:15.850Z,55.90
2019-03-30T12:45:46.723Z,74.25
2019-03-30T12:48:18.028Z,83.40
2019-03-30T12:50:48.982Z,75.52
2019-03-30T12:53:20.074Z,52.90
2019-03-30T12:55:51.098Z,53.10
2019-03-30T12:58:22.039Z,51.30
2019-03-30T13:00:53.919Z,50.52
2019-03-30T13:03:25.274Z,71.10
2019-03-30T13:05:56.233Z,53.98
2019-03-30T13:08:27.167Z,55.92
2019-03-30T13:10:58.128Z,58.05
2019-03-30T13:13:29.095Z,60.78
2019-03-30T13:16:00.216Z,61.30
2019-03-30T13:18:31.135Z,63.00
2019-03-30T13:21:02.395Z,66.55
2019-03-30T13:23:34.875Z,58.75
2019-03-30T13:26:06.439Z,68.70
2019-03-30T13:28:37.819Z,63.78
2019-03-30T13:31:08.854Z,62.90
2019-03-30T13:33:40.172Z,60.70
2019-03-30T13:36:11.560Z,64.53
2019-03-30T13:38:42.480Z,61.33
2019-03-30T13:41:14.356Z,59.03
2019-03-30T13:43:45.514Z,58.52
2019-03-30T13:46:16.462Z,58.63
2019-03-30T13:48:47.435Z,55.33
2019-03-30T13:51:18.280Z,52.35
2019-03-30T13:53:49.121Z,54.00
2019-03-30T13:56:20.894Z,48.08
2019-03-30T13:58:51.888Z,49.83
2019-03-30T14:01:22.824Z,47.78
2019-03-30T14:03:53.821Z,39.35
2019-03-30T14:06:25.056Z,33.25
2019-03-30T14:08:56.029Z,33.60
2019-03-30T14:11:26.966Z,35.90
2019-03-30T14:13:57.903Z,31.12
2019-03-30T14:16:28.852Z,26.62
2019-03-30T14:18:59.738Z,30.92
2019-03-30T14:21:30.582Z,30.52
2019-03-30T14:24:03.535Z,31.15
2019-03-30T14:26:34.791Z,29.90
2019-03-30T14:29:05.802Z,30.12
2019-03-30T14:31:36.763Z,33.63
2019-03-30T14:34:07.627Z,34.95
2019-03-30T14:36:38.468Z,37.60
2019-03-30T14:39:09.438Z,39.83
2019-03-30T14:41:40.231Z,38.67
2019-03-30T14:44:11.162Z,41.00
2019-03-30T14:46:43.674Z,40.58
2019-03-30T14:49:14.641Z,46.37
2019-03-30T14:51:46.847Z,51.92
2019-03-30T14:54:17.740Z,47.45
2019-03-30T14:56:48.750Z,51.58
2019-03-30T14:59:19.770Z,44.08
2019-03-30T15:01:50.691Z,41.75
2019-03-30T15:04:21.670Z,41.60
2019-03-30T15:06:52.606Z,40.38
2019-03-30T15:09:23.606Z,44.45
2019-03-30T15:11:55.431Z,42.83
2019-03-30T15:14:26.575Z,46.77
2019-03-30T15:16:57.771Z,46.80
2019-03-30T15:19:29.355Z,47.88
2019-03-30T15:22:00.304Z,47.08
2019-03-30T15:24:31.278Z,49.30
2019-03-30T15:27:02.267Z,47.13
2019-03-30T15:29:33.195Z,45.48
2019-03-30T15:32:04.211Z,43.55
2019-03-30T15:34:37.135Z,45.43
2019-03-30T15:37:08.074Z,42.33
2019-03-30T15:39:39.176Z,44.15
2019-03-30T15:42:10.099Z,46.10
2019-03-30T15:44:40.967Z,47.15
2019-03-30T15:47:12.977Z,43.83
2019-03-30T15:49:43.956Z,50.12
2019-03-30T15:52:14.894Z,45.88
2019-03-30T15:54:45.836Z,47.53
2019-03-30T15:57:16.897Z,44.80
2019-03-30T15:59:48.517Z,47.62
2019-03-30T16:02:19.807Z,53.13
2019-03-30T16:04:50.784Z,50.83
2019-03-30T16:07:22.400Z,51.40
2019-03-30T16:09:53.471Z,52.88
2019-03-30T16:12:24.363Z,50.73
2019-03-30T16:14:56.833Z,53.70
2019-03-30T16:17:29.691Z,49.08
2019-03-30T16:20:00.604Z,60.80
2019-03-30T16:22:32.047Z,49.65
2019-03-30T16:25:04.071Z,56.02
2019-03-30T16:27:38.874Z,58.35
2019-03-30T16:30:09.873Z,54.10
2019-03-30T16:32:40.832Z,48.60
2019-03-30T16:35:11.952Z,52.50
2019-03-30T16:37:42.923Z,46.53
2019-03-30T16:40:14.545Z,49.60
2019-03-30T16:42:45.783Z,47.53
2019-03-30T16:45:18.497Z,45.95
2019-03-30T16:47:57.039Z,43.95
2019-03-30T16:50:28.765Z,45.70
2019-03-30T16:52:59.819Z,47.55
2019-03-30T16:55:30.879Z,51.83
2019-03-30T16:58:01.755Z,55.73
2019-03-30T17:00:36.177Z,58.55
2019-03-30T17:03:08.712Z,55.20
2019-03-30T17:05:40.451Z,59.35
2019-03-30T17:08:11.379Z,60.38
2019-03-30T17:10:42.683Z,60.33
2019-03-30T17:13:14.218Z,58.70
2019-03-30T17:15:45.399Z,62.98
2019-03-30T17:18:17.159Z,61.60
2019-03-30T17:20:48.204Z,53.60
2019-03-30T17:23:19.351Z,58.92
2019-03-30T17:25:50.459Z,57.10
2019-03-30T17:28:21.605Z,64.58
2019-03-30T17:30:52.471Z,54.70
2019-03-30T17:33:23.405Z,58.02
2019-03-30T17:35:54.373Z,77.92
2019-03-30T17:38:26.346Z,155.35
2019-03-30T17:40:57.634Z,100.50
2019-03-30T17:43:28.882Z,97.75
2019-03-30T17:46:00.149Z,81.15
2019-03-30T17:48:31.162Z,99.75
2019-03-30T17:51:02.079Z,81.20
2019-03-30T17:53:33.031Z,75.62
2019-03-30T17:56:04.077Z,63.98
2019-03-30T17:58:34.943Z,71.07
2019-03-30T18:01:06.039Z,149.40
2019-03-30T18:03:37.167Z,126.22
2019-03-30T18:06:10.738Z,99.97
2019-03-30T18:08:41.817Z,118.97
2019-03-30T18:11:12.901Z,114.62
2019-03-30T18:13:43.847Z,97.67
2019-03-30T18:16:14.892Z,78.87
2019-03-30T18:18:46.567Z,78.78
2019-03-30T18:21:17.699Z,81.00
2019-03-30T18:23:48.707Z,87.33
2019-03-30T18:26:19.570Z,81.90
2019-03-30T18:28:50.515Z,79.15
2019-03-30T18:31:21.736Z,85.70
2019-03-30T18:33:52.636Z,89.28
2019-03-30T18:36:25.954Z,98.35
2019-03-30T18:39:09.237Z,87.05
2019-03-30T18:41:33.383Z,83.55
2019-03-30T18:44:04.444Z,89.40
2019-03-30T18:46:35.398Z,82.65
2019-03-30T18:49:06.366Z,83.72
2019-03-30T18:51:38.383Z,87.88
2019-03-30T18:54:09.440Z,80.80
2019-03-30T18:56:40.368Z,79.53
2019-03-30T18:59:11.399Z,91.57
2019-03-30T19:01:42.474Z,101.10
2019-03-30T19:04:13.527Z,89.83
2019-03-30T19:06:45.663Z,86.25
2019-03-30T19:09:16.553Z,85.97
2019-03-30T19:11:47.419Z,87.90
2019-03-30T19:14:19.212Z,90.60
2019-03-30T19:16:50.930Z,83.33
2019-03-30T19:19:22.899Z,89.87
2019-03-30T19:21:53.927Z,84.28
2019-03-30T19:24:24.851Z,84.22
2019-03-30T19:26:55.724Z,90.45
2019-03-30T19:29:26.663Z,85.65
2019-03-30T19:31:57.641Z,83.42
2019-03-30T19:34:29.361Z,81.40
2019-03-30T19:37:00.405Z,89.62
2019-03-30T19:39:31.687Z,89.37
2019-03-30T19:42:02.658Z,86.15
2019-03-30T19:44:33.546Z,82.67
2019-03-30T19:47:05.315Z,80.80
2019-03-30T19:49:36.268Z,85.42
2019-03-30T19:52:07.628Z,84.35
2019-03-30T19:54:38.573Z,91.87
2019-03-30T19:57:09.473Z,86.17
2019-03-30T19:59:40.500Z,87.45
2019-03-30T20:02:12.200Z,88.80
2019-03-30T20:04:43.290Z,85.87
2019-03-30T20:07:14.208Z,83.47
2019-03-30T20:09:45.212Z,86.28
2019-03-30T20:12:16.120Z,79.82
2019-03-30T20:14:47.229Z,78.67
2019-03-30T20:17:18.320Z,87.62
2019-03-30T20:19:52.783Z,89.07
2019-03-30T20:22:23.827Z,83.52
2019-03-30T20:24:54.863Z,89.85
2019-03-30T20:27:25.862Z,88.90
2019-03-30T20:29:56.819Z,87.78
2019-03-30T20:32:27.755Z,92.00
2019-03-30T20:34:58.929Z,95.90
2019-03-30T20:37:29.897Z,94.75
2019-03-30T20:40:00.950Z,88.65
2019-03-30T20:42:32.054Z,89.28
2019-03-30T20:45:03.059Z,90.32
2019-03-30T20:47:35.439Z,95.80
2019-03-30T20:50:08.687Z,91.08
2019-03-30T20:52:39.611Z,96.05
2019-03-30T20:55:10.670Z,91.85
2019-03-30T20:57:41.656Z,99.65
2019-03-30T21:00:14.911Z,93.60
2019-03-30T21:02:45.869Z,94.00
2019-03-30T21:05:16.890Z,101.58
2019-03-30T21:07:47.824Z,94.77
2019-03-30T21:10:20.707Z,93.03
2019-03-30T21:12:51.901Z,94.45
2019-03-30T21:15:22.851Z,95.77
2019-03-30T21:17:53.697Z,93.85
2019-03-30T21:20:24.927Z,99.77
2019-03-30T21:22:55.810Z,102.78
2019-03-30T21:25:27.076Z,97.78
2019-03-30T21:27:58.841Z,100.42
2019-03-30T21:30:29.867Z,101.12
2019-03-30T21:33:00.775Z,98.52
2019-03-30T21:35:31.806Z,99.52
2019-03-30T21:38:04.199Z,95.90
2019-03-30T21:40:35.272Z,103.12
2019-03-30T21:43:06.235Z,100.33
2019-03-30T21:45:37.151Z,100.95
2019-03-30T21:48:08.065Z,106.35
2019-03-30T21:50:38.981Z,100.67
2019-03-30T21:53:11.906Z,91.47
2019-03-30T21:55:42.848Z,92.05
2019-03-30T21:58:14.227Z,87.47
2019-03-30T22:00:45.079Z,87.42
2019-03-30T22:03:16.330Z,84.15
2019-03-30T22:05:49.321Z,83.72
2019-03-30T22:08:20.385Z,78.55
2019-03-30T22:10:51.353Z,82.45
2019-03-30T22:13:22.396Z,80.60
2019-03-30T22:15:53.336Z,69.50
2019-03-30T22:18:24.231Z,67.30
2019-03-30T22:20:55.399Z,67.40
2019-03-30T22:23:26.355Z,57.00
2019-03-30T22:26:00.262Z,59.15
2019-03-30T22:28:31.124Z,58.28
2019-03-30T22:31:01.989Z,53.40
2019-03-30T22:33:33.773Z,58.17
2019-03-30T22:36:04.772Z,52.85
2019-03-30T22:38:35.783Z,52.60
2019-03-30T22:41:07.032Z,56.50
2019-03-30T22:43:38.393Z,52.75
2019-03-30T22:46:09.655Z,51.05
2019-03-30T22:48:40.491Z,52.23
2019-03-30T22:51:11.547Z,51.20
2019-03-30T22:53:42.549Z,47.85
2019-03-30T22:56:13.629Z,51.88
2019-03-30T22:58:44.572Z,49.48
2019-03-30T23:01:18.098Z,44.55
2019-03-30T23:03:50.656Z,47.38
2019-03-30T23:06:21.606Z,46.63
2019-03-30T23:08:52.590Z,48.28
2019-03-30T23:11:23.640Z,45.55
2019-03-30T23:13:55.519Z,39.67
2019-03-30T23:16:27.051Z,41.18
2019-03-30T23:18:59.070Z,38.53
2019-03-30T23:21:30.051Z,37.48
2019-03-30T23:24:02.215Z,35.55
2019-03-30T23:26:33.041Z,37.93
2019-03-30T23:29:04.139Z,35.10
2019-03-30T23:31:35.143Z,33.83
2019-03-30T23:34:06.103Z,29.98
2019-03-30T23:36:39.241Z,32.58
2019-03-30T23:39:10.654Z,34.78
2019-03-30T23:41:41.704Z,34.98
2019-03-30T23:44:12.647Z,38.08
2019-03-30T23:46:43.620Z,34.78
2019-03-30T23:49:15.432Z,28.98
2019-03-30T23:51:46.809Z,29.90
2019-03-30T23:54:19.458Z,27.95
2019-03-30T23:56:50.655Z,29.60
2019-03-30T23:59:22.122Z,30.70
